Time;durP1;ratioP1;P1;durP2;ratioP2;P2;SDS_P1;SDS_P2;PMS_P1;PMS_P2;Temp;Humidity;BMP_temperature;BMP_pressure;BME280_temperature;BME280_humidity;BME280_pressure;Samples;Min_cycle;Max_cycle;Signal;HPM_P1;HPM_P2
2023/04/11 00:01:34;;;;;;;23.05;14.30;;;;;;;7.27;77.12;95015.03;5071416;28;20016;-74
2023/04/11 00:04:00;;;;;;;20.85;13.63;;;;;;;6.91;76.74;94959.47;5071017;28;20090;-73
2023/04/11 00:06:25;;;;;;;20.45;13.32;;;;;;;6.45;76.43;94904.91;5073075;28;20024;-73
2023/04/11 00:08:51;;;;;;;21.20;13.02;;;;;;;6.55;77.27;94953.19;5072934;28;20070;-73
2023/04/11 00:11:17;;;;;;;19.48;12.25;;;;;;;7.00;77.23;95004.59;5072776;28;20397;-73
2023/04/11 00:13:44;;;;;;;24.27;13.60;;;;;;;6.84;77.45;95006.34;5070685;28;20036;-73
2023/04/11 00:16:10;;;;;;;21.88;13.38;;;;;;;6.29;78.10;94956.69;5071165;28;20021;-73
2023/04/11 00:18:38;;;;;;;20.13;13.45;;;;;;;6.21;78.63;94933.44;5071224;28;20028;-73
2023/04/11 00:21:04;;;;;;;21.02;14.30;;;;;;;6.12;78.47;94911.25;5071320;28;20025;-73
2023/04/11 00:23:30;;;;;;;21.40;13.57;;;;;;;6.45;79.04;94968.13;5071308;28;20036;-74
2023/04/11 00:25:55;;;;;;;23.25;14.15;;;;;;;6.15;78.44;94922.06;5071773;28;20414;-74
2023/04/11 00:28:20;;;;;;;23.80;14.25;;;;;;;6.33;79.79;94957.75;5072646;28;20562;-74
2023/04/11 00:30:46;;;;;;;27.70;14.55;;;;;;;6.65;79.45;94996.44;5071234;28;20120;-74
2023/04/11 00:33:11;;;;;;;23.75;14.35;;;;;;;6.67;79.84;94971.44;5072539;28;20111;-74
2023/04/11 00:35:38;;;;;;;22.63;14.15;;;;;;;6.55;78.87;94952.41;5071884;28;20271;-74
2023/04/11 00:38:03;;;;;;;20.98;14.23;;;;;;;6.59;79.53;94967.44;5072828;28;20028;-74
2023/04/11 00:40:29;;;;;;;21.38;13.98;;;;;;;6.34;78.52;94911.13;5073925;28;20309;-74
2023/04/11 00:42:57;;;;;;;26.60;14.80;;;;;;;6.36;78.83;94904.56;5072970;28;20051;-74
2023/04/11 00:45:23;;;;;;;27.52;14.63;;;;;;;6.88;79.12;94988.97;5070468;28;20036;-74
2023/04/11 00:47:49;;;;;;;30.27;15.88;;;;;;;6.90;79.06;94996.63;5072439;28;20419;-74
2023/04/11 00:50:15;;;;;;;21.05;14.30;;;;;;;6.74;78.35;94960.66;5072302;28;20032;-73
2023/04/11 00:52:45;;;;;;;19.70;13.93;;;;;;;6.54;79.39;94954.25;5072318;28;20048;-73
2023/04/11 00:55:11;;;;;;;23.95;14.43;;;;;;;6.78;79.85;94974.94;5070326;28;20020;-74
2023/04/11 00:57:37;;;;;;;21.80;14.68;;;;;;;7.01;78.91;94990.38;5062526;28;20039;-74
2023/04/11 01:00:03;;;;;;;25.08;15.57;;;;;;;6.88;78.24;94969.72;5070703;28;20067;-74
2023/04/11 01:02:28;;;;;;;22.40;14.45;;;;;;;6.66;78.45;94979.59;5070753;28;20578;-74
2023/04/11 01:04:55;;;;;;;23.52;15.13;;;;;;;6.75;79.01;94992.06;5071835;28;20032;-74
2023/04/11 01:07:22;;;;;;;23.75;15.38;;;;;;;6.73;79.42;94980.97;5070706;28;20029;-74
2023/04/11 01:09:48;;;;;;;18.73;13.07;;;;;;;6.40;78.83;94925.94;5070323;28;20025;-74
2023/04/11 01:12:15;;;;;;;25.77;14.32;;;;;;;6.76;79.15;94961.22;5070263;28;20065;-74
2023/04/11 01:14:41;;;;;;;26.73;15.90;;;;;;;6.96;78.72;95001.66;5069996;28;20032;-74
2023/04/11 01:17:06;;;;;;;24.52;15.70;;;;;;;6.90;79.13;95002.69;5071033;28;20021;-74
2023/04/11 01:19:33;;;;;;;23.80;15.63;;;;;;;6.98;79.92;95002.22;5070019;28;20121;-74
2023/04/11 01:22:00;;;;;;;23.58;15.00;;;;;;;7.02;79.00;94999.84;5070182;28;20029;-74
2023/04/11 01:24:26;;;;;;;26.48;14.93;;;;;;;6.71;78.33;94971.75;5070654;28;20029;-74
2023/04/11 01:26:52;;;;;;;21.75;14.48;;;;;;;6.97;78.61;95003.25;5070356;28;20131;-74
2023/04/11 01:29:17;;;;;;;23.05;14.43;;;;;;;6.69;79.09;94963.28;5071659;28;20465;-73
2023/04/11 01:31:44;;;;;;;24.48;15.13;;;;;;;6.99;79.49;95000.38;5071722;28;20097;-74
2023/04/11 01:34:12;;;;;;;21.38;14.35;;;;;;;6.93;78.67;94996.94;5070019;28;20063;-73
2023/04/11 01:36:39;;;;;;;24.50;15.18;;;;;;;6.89;78.50;94987.13;5072199;28;20563;-74
2023/04/11 01:39:05;;;;;;;24.65;14.80;;;;;;;6.78;78.37;94959.13;5070963;28;20574;-73
2023/04/11 01:41:32;;;;;;;23.70;15.32;;;;;;;6.73;79.00;94988.06;5070033;28;20123;-74
2023/04/11 01:43:58;;;;;;;21.45;14.82;;;;;;;6.74;79.68;94989.66;5071098;28;20108;-74
2023/04/11 01:46:24;;;;;;;27.27;16.10;;;;;;;6.39;79.70;94938.31;5070423;28;20542;-74
2023/04/11 01:48:53;;;;;;;23.67;15.13;;;;;;;6.55;79.48;94962.94;5068979;28;20519;-74
2023/04/11 01:51:18;;;;;;;24.77;14.52;;;;;;;6.23;80.52;94889.22;5069329;28;20033;-74
2023/04/11 01:53:46;;;;;;;24.38;14.75;;;;;;;6.39;80.06;94925.16;5069905;28;20042;-74
2023/04/11 01:56:12;;;;;;;27.20;16.33;;;;;;;6.63;80.48;94972.22;5071305;28;20054;-73
2023/04/11 01:58:38;;;;;;;26.48;16.00;;;;;;;6.62;80.59;94947.69;5070629;28;20483;-74
2023/04/11 02:01:04;;;;;;;23.38;14.98;;;;;;;6.42;79.84;94952.81;5062317;28;20029;-74
2023/04/11 02:03:29;;;;;;;25.67;14.35;;;;;;;5.85;79.67;94879.69;5057819;28;20021;-74
2023/04/11 02:05:55;;;;;;;26.15;15.20;;;;;;;6.15;79.60;94937.88;5069373;28;20510;-74
2023/04/11 02:08:21;;;;;;;27.83;14.95;;;;;;;6.44;80.38;94969.16;5070911;28;20032;-74
2023/04/11 02:10:46;;;;;;;26.50;15.82;;;;;;;6.14;79.54;94936.28;5070397;28;20128;-74
2023/04/11 02:13:11;;;;;;;24.23;15.18;;;;;;;6.26;80.12;94951.91;5070542;28;20528;-74
2023/04/11 02:15:37;;;;;;;30.15;16.23;;;;;;;6.52;79.88;94972.13;5069464;28;20032;-73
2023/04/11 02:18:02;;;;;;;27.63;17.48;;;;;;;6.35;79.62;94957.50;5070433;28;20032;-73
2023/04/11 02:20:28;;;;;;;26.27;16.30;;;;;;;6.37;79.35;94944.88;5068547;28;20088;-74
2023/04/11 02:22:53;;;;;;;28.30;17.50;;;;;;;6.42;79.96;94958.88;5070272;28;20066;-74
2023/04/11 02:25:19;;;;;;;25.38;15.75;;;;;;;6.50;79.97;94970.78;5070852;28;20150;-74
2023/04/11 02:27:44;;;;;;;29.10;16.27;;;;;;;6.33;79.59;94951.72;5070463;28;20620;-74
2023/04/11 02:30:10;;;;;;;26.92;17.02;;;;;;;6.34;80.11;94948.00;5069317;28;20040;-73
2023/04/11 02:32:36;;;;;;;26.60;16.83;;;;;;;6.41;79.23;94943.31;5068655;28;20119;-73
2023/04/11 02:35:03;;;;;;;31.55;17.80;;;;;;;6.34;80.02;94948.00;5068184;28;20033;-74
2023/04/11 02:37:29;;;;;;;29.38;17.00;;;;;;;6.46;80.09;94975.78;5058471;28;20054;-74
2023/04/11 02:39:57;;;;;;;29.83;17.38;;;;;;;6.46;79.82;94982.88;5069804;28;20064;-74
2023/04/11 02:42:22;;;;;;;27.67;16.70;;;;;;;6.02;79.79;94914.63;5068186;28;20494;-73
2023/04/11 02:44:47;;;;;;;31.40;17.15;;;;;;;6.28;80.21;94957.72;5068432;28;20277;-74
2023/04/11 02:47:13;;;;;;;25.63;17.17;;;;;;;6.20;80.00;94942.38;5070361;28;20108;-74
2023/04/11 02:49:40;;;;;;;29.13;18.13;;;;;;;6.05;79.70;94940.41;5069020;28;20118;-74
2023/04/11 02:52:06;;;;;;;32.78;16.77;;;;;;;5.93;80.82;94929.28;5069330;28;20047;-74
2023/04/11 02:54:31;;;;;;;33.53;18.80;;;;;;;6.04;80.60;94943.28;5068552;28;20461;-73
2023/04/11 02:56:57;;;;;;;34.50;18.48;;;;;;;6.22;80.04;94961.34;5054844;28;20085;-74
2023/04/11 02:59:22;;;;;;;31.30;19.20;;;;;;;6.04;80.24;94946.72;5069101;28;20040;-74
2023/04/11 03:01:48;;;;;;;31.45;18.67;;;;;;;6.06;80.20;94959.63;5067607;28;20445;-74
2023/04/11 03:04:13;;;;;;;35.13;18.05;;;;;;;5.79;80.95;94896.47;5069581;28;20043;-74
2023/04/11 03:06:39;;;;;;;32.95;20.20;;;;;;;6.15;81.09;94922.06;5069158;28;20469;-74
2023/04/11 03:09:04;;;;;;;38.03;19.75;;;;;;;6.20;79.72;94955.53;5068246;28;20028;-75
2023/04/11 03:11:30;;;;;;;34.70;19.58;;;;;;;6.12;80.58;94925.19;5069954;28;20147;-75
2023/04/11 03:13:56;;;;;;;35.55;19.65;;;;;;;6.36;79.16;94938.03;5069185;28;20086;-74
2023/04/11 03:16:21;;;;;;;31.80;18.98;;;;;;;6.47;79.64;94958.94;5069897;28;20542;-74
2023/04/11 03:18:46;;;;;;;34.65;20.42;;;;;;;6.04;78.80;94920.41;5069871;28;20038;-74
2023/04/11 03:21:12;;;;;;;37.38;20.27;;;;;;;6.12;80.47;94934.94;5069712;28;20039;-75
2023/04/11 03:23:39;;;;;;;31.73;19.25;;;;;;;6.16;79.57;94954.47;5069057;28;20031;-74
2023/04/11 03:26:06;;;;;;;33.88;20.55;;;;;;;6.11;80.32;94938.63;5069534;28;20180;-74
2023/04/11 03:28:31;;;;;;;35.35;19.77;;;;;;;6.11;79.16;94926.25;5068013;28;20127;-74
2023/04/11 03:30:57;;;;;;;44.17;22.20;;;;;;;6.24;79.99;94961.13;5068227;28;20452;-73
2023/04/11 03:33:23;;;;;;;35.40;20.48;;;;;;;6.19;79.58;94938.94;5052684;28;20044;-75
2023/04/11 03:35:48;;;;;;;34.85;19.48;;;;;;;6.16;78.82;94947.38;5065370;28;20029;-75
2023/04/11 03:38:13;;;;;;;36.80;22.25;;;;;;;6.36;79.23;94962.53;5069523;28;20028;-75
2023/04/11 03:40:39;;;;;;;37.20;21.15;;;;;;;6.40;79.40;94962.81;5069510;28;20036;-74
2023/04/11 03:43:05;;;;;;;40.17;21.05;;;;;;;6.17;78.78;94950.78;5067488;28;20028;-75
2023/04/11 03:45:30;;;;;;;38.58;20.45;;;;;;;6.26;79.09;94949.25;5068397;28;20052;-74
2023/04/11 03:47:56;;;;;;;43.42;21.30;;;;;;;6.30;79.66;94941.66;5069087;28;20043;-74
2023/04/11 03:50:21;;;;;;;36.60;21.90;;;;;;;5.40;77.87;94812.50;5067732;28;20031;-73
2023/04/11 03:52:47;;;;;;;43.22;21.15;;;;;;;6.29;79.72;94954.03;5062549;28;20190;-73
2023/04/11 03:55:12;;;;;;;37.03;21.05;;;;;;;5.69;78.80;94854.28;5056023;28;20028;-73
2023/04/11 03:57:37;;;;;;;35.33;20.20;;;;;;;6.03;77.84;94905.63;5069533;28;20028;-73
2023/04/11 04:00:06;;;;;;;34.97;20.02;;;;;;;6.09;78.07;94941.53;5069166;28;20101;-73
2023/04/11 04:02:32;;;;;;;36.03;20.98;;;;;;;5.89;78.19;94916.84;5059340;28;20021;-73
2023/04/11 04:04:57;;;;;;;37.47;21.45;;;;;;;6.06;78.63;94954.38;5057360;28;20554;-74
2023/04/11 04:07:27;;;;;;;40.00;22.58;;;;;;;6.12;79.38;94961.28;5059490;28;20075;-75
2023/04/11 04:09:53;;;;;;;40.40;23.08;;;;;;;6.08;79.11;94963.63;5057823;28;20029;-74
2023/04/11 04:12:21;;;;;;;43.70;22.58;;;;;;;5.77;79.20;94920.41;5062260;28;20131;-74
2023/04/11 04:14:47;;;;;;;36.22;20.95;;;;;;;5.85;78.38;94923.63;5063521;28;20067;-74
2023/04/11 04:17:14;;;;;;;40.72;22.42;;;;;;;6.00;78.41;94964.06;5061059;28;20417;-74
2023/04/11 04:19:41;;;;;;;44.58;23.17;;;;;;;5.89;78.89;94959.75;5064348;28;20037;-74
2023/04/11 04:22:10;;;;;;;41.15;23.05;;;;;;;5.99;79.01;94959.84;5060528;28;20078;-74
2023/04/11 04:24:40;;;;;;;40.25;23.35;;;;;;;5.52;79.24;94909.63;5062191;28;20047;-74
2023/04/11 04:27:09;;;;;;;40.20;23.17;;;;;;;5.90;80.25;94961.34;5061416;28;20082;-74
2023/04/11 04:29:38;;;;;;;37.05;23.48;;;;;;;5.78;79.83;94921.19;5062734;28;20429;-74
2023/04/11 04:32:09;;;;;;;43.80;23.13;;;;;;;5.81;79.86;94916.22;5068931;28;20066;-75
2023/04/11 04:34:48;;;;;;;38.00;22.38;;;;;;;5.98;79.93;94958.25;5070277;28;20029;-74
2023/04/11 04:37:20;;;;;;;41.55;22.77;;;;;;;5.63;79.88;94928.94;5065996;28;20032;-74
2023/04/11 04:39:55;;;;;;;46.17;23.75;;;;;;;5.86;80.40;94948.91;5058640;28;20028;-75
2023/04/11 04:42:27;;;;;;;44.58;24.13;;;;;;;5.59;80.35;94927.84;5062844;28;20044;-74
2023/04/11 04:44:54;;;;;;;44.60;25.50;;;;;;;5.47;80.54;94898.28;5059479;28;20658;-74
2023/04/11 04:47:28;;;;;;;49.83;27.02;;;;;;;5.90;80.16;94963.97;5058207;28;20062;-74
2023/04/11 04:49:55;;;;;;;42.65;23.58;;;;;;;5.76;79.98;94953.03;5064313;28;20028;-74
2023/04/11 04:52:22;;;;;;;43.72;25.70;;;;;;;5.56;80.15;94916.00;5066295;28;20051;-75
2023/04/11 04:54:48;;;;;;;44.08;24.25;;;;;;;5.58;80.26;94934.16;5071447;28;20033;-75
2023/04/11 04:57:13;;;;;;;45.50;26.00;;;;;;;5.58;80.94;94945.47;5070764;28;20036;-74
2023/04/11 04:59:38;;;;;;;53.25;27.15;;;;;;;5.38;81.08;94932.91;5066318;28;20028;-74
2023/04/11 05:02:04;;;;;;;47.25;27.10;;;;;;;5.48;80.72;94931.44;5064531;28;20029;-75
2023/04/11 05:04:30;;;;;;;48.15;26.63;;;;;;;5.37;80.75;94917.38;5069665;28;20787;-74
2023/04/11 05:06:56;;;;;;;49.25;25.65;;;;;;;5.33;80.27;94882.91;5057189;28;20039;-74
2023/04/11 05:09:21;;;;;;;49.67;26.98;;;;;;;5.55;80.52;94903.09;5059097;28;20029;-75
2023/04/11 05:11:47;;;;;;;47.80;25.88;;;;;;;5.64;79.82;94935.81;5060599;28;20024;-74
2023/04/11 05:14:12;;;;;;;46.38;25.75;;;;;;;5.56;79.74;94926.53;5062739;28;20024;-75
2023/04/11 05:16:40;;;;;;;45.25;25.15;;;;;;;5.39;80.36;94905.56;5056859;28;20043;-75
2023/04/11 05:19:05;;;;;;;45.38;25.98;;;;;;;5.75;79.79;94929.59;5058162;28;20036;-75
2023/04/11 05:21:31;;;;;;;47.33;25.17;;;;;;;5.61;79.17;94920.50;5066744;28;20036;-78
2023/04/11 05:23:56;;;;;;;43.33;24.73;;;;;;;5.08;78.60;94798.50;5066859;28;20116;-78
2023/04/11 05:26:21;;;;;;;41.40;24.65;;;;;;;5.68;78.93;94914.00;5069400;28;20051;-77
2023/04/11 05:28:47;;;;;;;37.40;23.15;;;;;;;5.69;78.75;94909.53;5063591;28;20453;-78
2023/04/11 05:31:12;;;;;;;43.65;25.92;;;;;;;5.60;78.21;94903.94;5062556;28;20067;-74
2023/04/11 05:33:39;;;;;;;43.13;23.83;;;;;;;5.72;79.09;94914.31;5065834;28;20063;-74
2023/04/11 05:36:05;;;;;;;47.92;25.35;;;;;;;5.98;78.31;94942.47;5060237;28;20328;-75
2023/04/11 05:38:32;;;;;;;47.95;26.17;;;;;;;5.94;78.39;94938.75;5062899;28;20041;-74
2023/04/11 05:40:58;;;;;;;43.95;25.08;;;;;;;5.67;78.71;94907.16;5054139;28;20036;-74
2023/04/11 05:43:24;;;;;;;37.60;23.15;;;;;;;5.52;79.11;94872.81;5061880;28;20040;-74
2023/04/11 05:45:49;;;;;;;38.45;23.00;;;;;;;5.68;78.62;94894.78;5063451;28;20660;-74
2023/04/11 05:48:18;;;;;;;50.80;26.27;;;;;;;5.86;78.68;94912.06;5065430;28;20405;-74
2023/04/11 05:50:44;;;;;;;56.92;24.67;;;;;;;5.99;78.82;94917.72;5061298;28;20024;-75
2023/04/11 05:53:09;;;;;;;43.30;24.30;;;;;;;5.90;78.21;94924.50;5078343;28;20181;-75
2023/04/11 05:55:35;;;;;;;44.55;24.17;;;;;;;5.99;78.38;94914.31;5063197;28;20086;-75
2023/04/11 05:58:01;;;;;;;43.92;23.77;;;;;;;6.00;77.84;94903.53;5062271;28;20395;-75
2023/04/11 06:00:29;;;;;;;42.10;24.60;;;;;;;5.99;76.71;94888.78;5059613;28;20036;-74
2023/04/11 06:02:55;;;;;;;36.42;22.40;;;;;;;6.23;77.14;94933.19;5065203;28;20027;-74
2023/04/11 06:05:21;;;;;;;37.42;21.92;;;;;;;6.14;77.05;94912.59;5063837;28;20035;-74
2023/04/11 06:07:46;;;;;;;37.60;22.67;;;;;;;5.92;77.57;94879.50;5056774;28;20423;-74
2023/04/11 06:10:12;;;;;;;40.42;22.95;;;;;;;6.11;76.95;94896.50;5059398;28;20413;-74
2023/04/11 06:12:38;;;;;;;41.97;21.65;;;;;;;5.95;76.92;94881.66;5058699;28;20040;-73
2023/04/11 06:15:03;;;;;;;35.15;20.98;;;;;;;6.36;76.57;94916.94;5056025;28;20349;-74
2023/04/11 06:17:29;;;;;;;40.58;21.27;;;;;;;6.29;76.42;94890.84;5062210;28;20465;-73
2023/04/11 06:19:54;;;;;;;36.90;21.20;;;;;;;6.14;76.13;94873.09;5060961;28;20450;-74
2023/04/11 06:22:20;;;;;;;35.53;21.23;;;;;;;6.49;76.27;94906.75;5056795;28;20032;-74
2023/04/11 06:24:46;;;;;;;34.72;20.58;;;;;;;6.22;75.50;94866.56;5060440;28;20040;-75
2023/04/11 06:27:11;;;;;;;39.38;21.63;;;;;;;6.46;75.65;94886.22;5063461;28;20037;-74
2023/04/11 06:29:37;;;;;;;35.25;21.65;;;;;;;6.83;75.63;94904.59;5066026;28;20028;-74
2023/04/11 06:32:03;;;;;;;37.78;20.85;;;;;;;6.79;75.27;94871.09;5056966;28;20073;-74
2023/04/11 06:34:29;;;;;;;30.17;19.25;;;;;;;6.66;74.55;94848.63;5065651;28;20499;-75
2023/04/11 06:36:55;;;;;;;33.13;18.98;;;;;;;6.98;74.18;94883.56;5063768;28;20165;-80
2023/04/11 06:39:20;;;;;;;26.60;17.50;;;;;;;6.29;73.52;94803.94;5057548;28;20036;-79
2023/04/11 06:41:46;;;;;;;36.03;18.70;;;;;;;6.92;73.81;94913.59;5061241;28;20514;-78
2023/04/11 06:44:12;;;;;;;34.78;17.38;;;;;;;6.61;73.93;94874.16;5064534;28;20033;-77
2023/04/11 06:46:37;;;;;;;31.13;17.45;;;;;;;6.59;73.41;94851.50;5055324;28;20033;-77
2023/04/11 06:49:06;;;;;;;27.90;17.85;;;;;;;6.91;73.45;94890.13;5057413;28;20468;-77
2023/04/11 06:51:34;;;;;;;33.22;18.27;;;;;;;6.93;74.26;94915.19;5054699;28;20029;-77
2023/04/11 06:54:01;;;;;;;30.55;17.02;;;;;;;6.87;73.15;94895.13;5060143;28;20087;-77
2023/04/11 06:56:26;;;;;;;35.95;16.75;;;;;;;6.79;72.86;94892.97;5056974;28;20032;-76
2023/04/11 06:58:51;;;;;;;36.72;17.77;;;;;;;6.65;74.02;94857.59;5055012;28;20035;-77
2023/04/11 07:01:19;;;;;;;31.13;17.98;;;;;;;6.77;73.47;94887.19;5053160;28;20021;-77
2023/04/11 07:03:48;;;;;;;27.45;16.60;;;;;;;6.78;73.30;94880.84;5057569;28;20041;-77
2023/04/11 07:06:14;;;;;;;30.70;16.20;;;;;;;6.70;73.66;94876.06;5056978;28;20040;-76
2023/04/11 07:08:39;;;;;;;27.08;16.88;;;;;;;6.63;73.45;94870.25;5062494;28;20125;-76
2023/04/11 07:11:05;;;;;;;29.55;17.65;;;;;;;6.91;73.61;94909.38;5058870;28;20030;-76
2023/04/11 07:13:31;;;;;;;29.08;16.42;;;;;;;7.03;73.19;94893.34;5056161;28;20116;-76
2023/04/11 07:15:56;;;;;;;39.35;17.48;;;;;;;7.18;73.55;94872.28;5056881;28;20107;-76
2023/04/11 07:18:21;;;;;;;31.08;16.45;;;;;;;7.30;71.87;94877.34;5058583;28;20414;-76
2023/04/11 07:20:47;;;;;;;28.38;16.17;;;;;;;7.44;71.41;94883.72;5057893;28;20043;-76
2023/04/11 07:23:13;;;;;;;26.70;16.38;;;;;;;7.38;71.83;94870.78;5059084;28;20021;-76
2023/04/11 07:25:38;;;;;;;34.05;16.50;;;;;;;7.41;71.63;94854.41;5055329;28;20047;-76
2023/04/11 07:28:07;;;;;;;24.15;14.90;;;;;;;7.46;70.17;94863.16;5057393;28;20028;-76
2023/04/11 07:30:34;;;;;;;25.77;15.75;;;;;;;7.17;69.14;94810.03;5059108;28;20471;-76
2023/04/11 07:33:01;;;;;;;27.65;15.18;;;;;;;7.46;69.33;94834.13;5053435;28;21543;-76
2023/04/11 07:35:27;;;;;;;24.75;14.55;;;;;;;7.67;68.67;94875.31;5061208;28;20044;-76
2023/04/11 07:37:53;;;;;;;23.40;15.23;;;;;;;7.68;68.56;94858.44;5060952;28;20044;-76
2023/04/11 07:40:18;;;;;;;22.30;14.68;;;;;;;7.81;69.32;94883.50;5054278;28;20368;-76
2023/04/11 07:42:45;;;;;;;25.20;14.30;;;;;;;7.86;69.12;94864.25;5057896;28;20223;-76
2023/04/11 07:45:10;;;;;;;30.70;15.10;;;;;;;8.07;68.20;94885.13;5058689;28;20053;-77
2023/04/11 07:47:36;;;;;;;21.52;13.13;;;;;;;7.86;67.35;94856.34;5061120;28;20032;-78
2023/04/11 07:50:02;;;;;;;23.33;13.50;;;;;;;7.88;68.13;94867.41;5060888;28;20561;-77
2023/04/11 07:52:28;;;;;;;33.42;13.82;;;;;;;7.79;67.51;94839.94;5057629;28;20918;-77
2023/04/11 07:54:53;;;;;;;25.25;13.73;;;;;;;7.93;67.23;94878.00;5057932;28;20051;-77
2023/04/11 07:57:19;;;;;;;23.48;14.00;;;;;;;7.43;67.07;94787.16;5060812;28;20043;-77
2023/04/11 07:59:45;;;;;;;23.08;13.65;;;;;;;8.03;67.03;94862.91;5066008;28;20517;-77
2023/04/11 08:02:10;;;;;;;24.33;13.70;;;;;;;8.01;67.46;94853.69;5061154;28;20463;-77
2023/04/11 08:04:36;;;;;;;18.40;11.68;;;;;;;7.70;65.40;94810.66;5061167;28;20036;-76
2023/04/11 08:07:02;;;;;;;20.33;12.38;;;;;;;8.18;65.88;94864.75;5064882;28;20028;-77
2023/04/11 08:09:28;;;;;;;26.00;13.05;;;;;;;8.12;64.46;94842.84;5059809;28;20286;-77
2023/04/11 08:11:55;;;;;;;22.95;12.60;;;;;;;8.11;64.82;94832.53;5061705;28;20509;-76
2023/04/11 08:14:24;;;;;;;18.50;12.40;;;;;;;8.12;64.22;94827.00;5069800;28;20028;-76
2023/04/11 08:16:49;;;;;;;23.17;12.48;;;;;;;8.28;65.44;94825.13;5063446;28;20110;-77
2023/04/11 08:19:16;;;;;;;20.90;12.23;;;;;;;8.35;65.00;94846.81;5060302;28;20536;-78
2023/04/11 08:21:41;;;;;;;25.13;12.85;;;;;;;8.22;64.72;94797.16;5063482;28;20029;-78
2023/04/11 08:24:07;;;;;;;21.58;12.10;;;;;;;8.65;64.24;94853.09;5057779;28;20033;-77
2023/04/11 08:26:33;;;;;;;22.35;13.35;;;;;;;8.49;64.67;94802.13;5057827;28;20028;-76
2023/04/11 08:28:58;;;;;;;26.80;13.63;;;;;;;8.79;63.89;94814.44;5057137;28;20047;-77
2023/04/11 08:31:23;;;;;;;18.58;11.27;;;;;;;8.71;63.22;94815.78;5059985;28;20028;-77
2023/04/11 08:33:49;;;;;;;21.90;11.60;;;;;;;8.94;63.35;94832.09;5059453;28;20036;-77
2023/04/11 08:36:14;;;;;;;18.08;11.10;;;;;;;8.75;62.73;94824.78;5057410;28;20487;-77
2023/04/11 08:38:40;;;;;;;20.08;12.65;;;;;;;8.79;62.03;94823.16;5064434;28;20048;-77
2023/04/11 08:41:06;;;;;;;16.48;11.15;;;;;;;8.82;61.98;94829.75;5074974;28;20032;-77
2023/04/11 08:43:37;;;;;;;20.73;12.52;;;;;;;8.79;62.22;94788.78;5059269;28;20029;-77
2023/04/11 08:46:03;;;;;;;19.17;11.73;;;;;;;9.00;61.48;94802.69;5060836;28;20125;-77
2023/04/11 08:48:31;;;;;;;20.08;10.93;;;;;;;9.03;61.28;94773.06;5063054;28;20033;-77
2023/04/11 08:50:56;;;;;;;15.23;10.20;;;;;;;8.99;60.71;94797.69;5064621;28;20029;-77
2023/04/11 08:53:24;;;;;;;19.08;11.80;;;;;;;8.96;60.94;94769.13;5079332;28;20055;-76
2023/04/11 08:55:49;;;;;;;15.07;10.38;;;;;;;8.98;61.21;94780.25;5057520;28;20037;-77
2023/04/11 08:58:15;;;;;;;18.00;10.98;;;;;;;9.20;60.79;94784.09;5064720;28;20111;-76
2023/04/11 09:00:41;;;;;;;22.08;11.07;;;;;;;9.34;60.94;94778.97;5060091;28;20566;-78
2023/04/11 09:03:08;;;;;;;20.92;10.18;;;;;;;9.28;59.81;94794.09;5057422;28;20032;-77
2023/04/11 09:05:34;;;;;;;16.73;11.13;;;;;;;9.40;60.20;94799.03;5057684;28;20029;-77
2023/04/11 09:08:06;;;;;;;15.90;10.88;;;;;;;9.46;60.33;94794.53;5065907;28;20395;-78
2023/04/11 09:10:31;;;;;;;20.10;11.73;;;;;;;9.63;59.25;94793.03;5055798;28;20029;-77
2023/04/11 09:12:58;;;;;;;16.42;10.43;;;;;;;9.72;57.78;94805.69;5061902;28;20036;-78
2023/04/11 09:15:25;;;;;;;15.50;10.35;;;;;;;9.66;58.11;94783.78;5060534;28;20035;-77
2023/04/11 09:17:52;;;;;;;16.27;10.85;;;;;;;9.69;57.20;94759.38;5062307;28;20087;-77
2023/04/11 09:20:20;;;;;;;19.30;11.70;;;;;;;9.50;58.29;94743.38;5060462;28;20107;-79
2023/04/11 09:22:49;;;;;;;17.92;10.25;;;;;;;9.69;58.59;94769.97;5062447;28;20032;-76
2023/04/11 09:25:16;;;;;;;16.58;11.05;;;;;;;9.81;58.33;94770.41;5060802;28;20056;-77
2023/04/11 09:27:41;;;;;;;16.05;10.80;;;;;;;9.79;57.80;94751.34;5061605;28;20037;-76
2023/04/11 09:30:27;;;;;;;16.20;11.13;;;;;;;9.86;57.63;94761.63;5057777;28;20035;-76
2023/04/11 09:32:53;;;;;;;21.20;12.98;;;;;;;10.03;57.96;94756.69;5057676;28;20511;-76
2023/04/11 09:35:23;;;;;;;12.90;9.45;;;;;;;9.94;57.25;94753.84;5064392;28;20025;-77
2023/04/11 09:37:56;;;;;;;18.08;11.07;;;;;;;9.93;57.21;94746.19;5066367;28;20182;-76
2023/04/11 09:40:27;;;;;;;17.73;10.15;;;;;;;8.83;57.26;94599.47;5056068;28;20064;-78
2023/04/11 09:43:00;;;;;;;17.45;11.43;;;;;;;9.42;57.46;94706.13;5062903;28;20464;-77
2023/04/11 09:45:28;;;;;;;18.15;11.32;;;;;;;9.79;57.80;94714.28;5061049;28;20148;-77
2023/04/11 09:47:57;;;;;;;16.67;11.57;;;;;;;9.70;57.45;94713.28;5047264;28;20440;-76
2023/04/11 09:50:23;;;;;;;17.75;11.45;;;;;;;9.74;57.69;94697.66;5052746;28;20086;-77
2023/04/11 09:52:49;;;;;;;16.98;11.82;;;;;;;9.89;57.44;94698.28;5057475;28;20037;-76
2023/04/11 09:55:19;;;;;;;20.95;12.60;;;;;;;9.57;57.69;94637.19;5063141;28;20033;-76
2023/04/11 09:57:53;;;;;;;15.88;11.07;;;;;;;9.93;57.11;94731.09;5058980;28;20051;-77
2023/04/11 10:00:23;;;;;;;17.83;11.55;;;;;;;9.75;57.38;94718.56;5060308;28;20142;-77
2023/04/11 10:02:52;;;;;;;17.55;11.65;;;;;;;9.48;57.68;94692.56;5062450;28;20123;-77
2023/04/11 10:05:18;;;;;;;18.13;11.85;;;;;;;9.80;57.25;94726.44;5058835;28;20047;-77
2023/04/11 10:07:51;;;;;;;18.95;11.90;;;;;;;9.85;56.73;94733.53;5065026;28;20043;-77
2023/04/11 10:10:21;;;;;;;16.38;11.23;;;;;;;9.55;55.83;94692.25;5061817;28;20119;-77
2023/04/11 10:12:48;;;;;;;20.58;12.00;;;;;;;10.03;56.31;94712.44;5066535;28;20101;-76
2023/04/11 10:15:14;;;;;;;18.00;11.65;;;;;;;10.22;55.46;94696.63;5065151;28;20085;-77
2023/04/11 10:17:40;;;;;;;20.42;12.80;;;;;;;11.02;54.28;94712.59;5061488;28;20036;-77
2023/04/11 10:20:49;;;;;;;17.65;10.77;;;;;;;11.03;51.85;94631.13;5065784;28;20419;-77
2023/04/11 10:23:15;;;;;;;22.52;10.88;;;;;;;11.69;51.28;94691.13;5061813;28;20135;-77
2023/04/11 10:25:47;;;;;;;16.70;10.35;;;;;;;11.62;49.77;94707.44;5066121;28;20044;-76
2023/04/11 10:28:28;;;;;;;15.40;9.80;;;;;;;11.26;50.72;94688.63;5064718;28;20135;-76
2023/04/11 10:31:00;;;;;;;17.45;11.15;;;;;;;11.39;50.46;94681.78;5062502;28;20032;-77
2023/04/11 10:33:26;;;;;;;16.85;10.98;;;;;;;11.24;51.92;94658.94;5063897;28;20067;-77
2023/04/11 10:36:08;;;;;;;17.73;11.43;;;;;;;11.48;50.86;94661.47;5061877;28;20033;-77
2023/04/11 10:38:40;;;;;;;15.43;10.60;;;;;;;11.59;50.62;94676.94;5057021;28;20111;-77
2023/04/11 10:41:27;;;;;;;15.88;10.60;;;;;;;12.04;49.12;94649.88;5066312;28;20100;-76
2023/04/11 10:44:31;;;;;;;18.95;9.70;;;;;;;12.10;49.06;94672.63;5064824;28;20037;-76
2023/04/11 10:46:56;;;;;;;14.75;10.02;;;;;;;12.73;47.10;94675.34;4966122;28;20057;-76
2023/04/11 10:49:33;;;;;;;16.42;10.68;;;;;;;12.76;46.48;94617.00;4987412;28;20429;-75
2023/04/11 10:52:21;;;;;;;16.90;10.65;;;;;;;12.69;46.81;94648.53;5020468;28;20044;-75
2023/04/11 10:54:50;;;;;;;16.55;10.02;;;;;;;12.65;46.46;94649.44;5062892;28;20484;-75
2023/04/11 10:57:16;;;;;;;15.30;9.27;;;;;;;12.86;45.55;94605.34;5058926;28;20025;-76
2023/04/11 10:59:41;;;;;;;13.82;9.82;;;;;;;13.12;44.99;94650.81;5057541;28;20032;-76
2023/04/11 11:02:08;;;;;;;17.95;9.65;;;;;;;12.77;45.56;94601.81;5065289;28;20036;-76
2023/04/11 11:04:35;;;;;;;14.95;10.45;;;;;;;13.03;45.22;94636.63;5063945;28;20043;-76
2023/04/11 11:07:03;;;;;;;13.50;9.40;;;;;;;12.77;44.22;94577.88;5066965;28;20043;-76
2023/04/11 11:09:29;;;;;;;17.35;10.02;;;;;;;13.55;43.95;94613.81;5068954;28;20032;-76
2023/04/11 11:12:07;;;;;;;11.82;8.18;;;;;;;13.70;42.22;94613.44;5063911;28;20036;-76
2023/04/11 11:14:33;;;;;;;12.80;8.60;;;;;;;13.18;44.68;94627.53;5066133;28;20047;-76
2023/04/11 11:16:59;;;;;;;12.82;9.32;;;;;;;12.90;44.67;94602.84;5065639;28;20036;-76
2023/04/11 11:19:25;;;;;;;15.88;9.85;;;;;;;12.57;44.84;94621.69;5059143;28;20459;-76
2023/04/11 11:21:51;;;;;;;13.05;9.70;;;;;;;12.20;46.81;94598.78;5060806;28;20581;-75
2023/04/11 11:24:24;;;;;;;16.23;10.05;;;;;;;12.13;48.10;94598.38;5067339;28;20021;-76